createdAt,value
2023-04-15T00:02:36.358Z,8.66
2023-04-15T00:05:18.367Z,8.77
2023-04-15T00:07:49.013Z,8.64
2023-04-15T00:10:16.693Z,8.81
2023-04-15T00:12:44.002Z,9.09
2023-04-15T00:15:12.628Z,8.75
2023-04-15T00:17:43.099Z,8.61
2023-04-15T00:20:11.454Z,8.95
2023-04-15T00:23:00.679Z,8.43
2023-04-15T00:25:31.721Z,8.38
2023-04-15T00:28:00.393Z,8.94
2023-04-15T00:30:28.353Z,8.49
2023-04-15T00:33:19.315Z,8.79
2023-04-15T00:36:01.656Z,8.66
2023-04-15T00:39:06.496Z,8.83
2023-04-15T00:41:46.197Z,8.91
2023-04-15T00:48:42.547Z,9.14
2023-04-15T00:51:27.493Z,9.09
2023-04-15T00:54:18.319Z,8.98
2023-04-15T00:56:58.193Z,9.08
2023-04-15T00:59:41.750Z,9.09
2023-04-15T01:02:45.028Z,9.19
2023-04-15T01:05:36.665Z,9.52
2023-04-15T01:08:04.537Z,9.43
2023-04-15T01:10:32.060Z,9.34
2023-04-15T01:12:59.818Z,9.45
2023-04-15T01:15:27.704Z,9.48
2023-04-15T01:17:55.890Z,9.64
2023-04-15T01:20:23.919Z,9.80
2023-04-15T01:22:52.860Z,9.71
2023-04-15T01:25:48.230Z,9.70
2023-04-15T01:28:24.598Z,9.58
2023-04-15T01:31:05.827Z,9.39
2023-04-15T01:33:53.166Z,9.45
2023-04-15T01:36:41.110Z,9.70
2023-04-15T01:39:08.914Z,9.88
2023-04-15T01:42:03.386Z,9.90
2023-04-15T01:44:53.793Z,10.00
2023-04-15T01:47:27.226Z,10.08
2023-04-15T01:49:57.343Z,9.82
2023-04-15T01:52:27.833Z,9.96
2023-04-15T01:54:57.273Z,9.95
2023-04-15T01:57:27.519Z,10.21
2023-04-15T02:00:17.683Z,10.38
2023-04-15T02:02:47.057Z,9.77
2023-04-15T02:05:26.335Z,10.09
2023-04-15T02:08:13.465Z,10.06
2023-04-15T02:11:03.427Z,10.17
2023-04-15T02:13:36.760Z,10.29
2023-04-15T02:16:06.463Z,10.27
2023-04-15T02:18:37.450Z,10.34
2023-04-15T02:21:19.007Z,10.11
2023-04-15T02:23:48.507Z,9.88
2023-04-15T02:26:18.454Z,10.01
2023-04-15T02:28:47.336Z,10.03
2023-04-15T02:31:17.556Z,10.28
2023-04-15T02:33:47.697Z,9.87
2023-04-15T02:36:29.856Z,9.87
2023-04-15T02:39:21.934Z,9.96
2023-04-15T02:41:52.655Z,9.87
2023-04-15T02:44:25.034Z,9.98
2023-04-15T02:46:59.271Z,10.08
2023-04-15T02:49:49.068Z,10.06
2023-04-15T02:52:37.755Z,10.52
2023-04-15T02:55:11.214Z,10.07
2023-04-15T02:57:44.248Z,10.23
2023-04-15T03:00:25.492Z,10.08
2023-04-15T03:02:58.469Z,9.92
2023-04-15T03:05:28.604Z,9.77
2023-04-15T03:07:58.676Z,9.96
2023-04-15T03:10:38.756Z,9.77
2023-04-15T03:13:08.950Z,9.95
2023-04-15T03:15:38.177Z,9.86
2023-04-15T03:18:07.113Z,9.95
2023-04-15T03:20:37.417Z,9.91
2023-04-15T03:23:18.262Z,9.78
2023-04-15T03:25:47.955Z,10.44
2023-04-15T03:28:17.300Z,10.27
2023-04-15T03:30:46.491Z,10.03
2023-04-15T03:33:16.132Z,9.92
2023-04-15T03:35:45.034Z,9.98
2023-04-15T03:38:13.875Z,9.88
2023-04-15T03:40:45.058Z,10.08
2023-04-15T03:43:14.487Z,10.10
2023-04-15T03:45:43.346Z,10.38
2023-04-15T03:48:17.934Z,10.28
2023-04-15T03:50:51.002Z,10.14
2023-04-15T03:53:22.270Z,10.25
2023-04-15T03:55:52.616Z,10.11
2023-04-15T03:58:22.345Z,10.20
2023-04-15T04:00:55.141Z,10.12
2023-04-15T04:03:26.072Z,10.18
2023-04-15T04:05:55.022Z,10.16
2023-04-15T04:08:24.025Z,10.04
2023-04-15T04:10:52.717Z,10.15
2023-04-15T04:13:22.036Z,10.13
2023-04-15T04:15:51.812Z,10.19
2023-04-15T04:18:23.230Z,10.09
2023-04-15T04:21:16.486Z,10.13
2023-04-15T04:23:57.497Z,9.79
2023-04-15T04:26:42.243Z,9.94
2023-04-15T04:29:34.429Z,10.04
2023-04-15T04:32:15.935Z,9.98
2023-04-15T04:35:11.565Z,10.17
2023-04-15T04:37:54.801Z,10.50
2023-04-15T04:40:50.235Z,10.32
2023-04-15T04:43:38.917Z,10.57
2023-04-15T04:46:12.117Z,10.64
2023-04-15T04:49:05.588Z,10.58
2023-04-15T04:51:55.652Z,10.43
2023-04-15T04:54:38.361Z,10.59
2023-04-15T05:01:22.813Z,10.49
2023-04-15T05:04:16.549Z,10.42
2023-04-15T05:06:59.346Z,10.56
2023-04-15T05:14:02.500Z,10.70
2023-04-15T05:16:57.761Z,10.70
2023-04-15T05:19:26.557Z,10.43
2023-04-15T05:21:55.836Z,10.67
2023-04-15T05:24:35.097Z,10.60
2023-04-15T05:27:05.412Z,10.74
2023-04-15T05:29:35.711Z,10.60
2023-04-15T05:32:05.710Z,10.55
2023-04-15T05:34:34.690Z,10.22
2023-04-15T05:37:05.437Z,10.50
2023-04-15T05:39:36.098Z,10.18
2023-04-15T05:42:06.303Z,10.20
2023-04-15T05:44:36.293Z,10.22
2023-04-15T05:47:06.108Z,10.32
2023-04-15T05:49:39.413Z,10.45
2023-04-15T05:52:13.240Z,10.61
2023-04-15T05:54:44.663Z,10.53
2023-04-15T05:57:19.284Z,10.64
2023-04-15T06:00:04.216Z,10.65
2023-04-15T06:02:38.559Z,10.84
2023-04-15T06:05:11.299Z,11.10
2023-04-15T06:07:41.369Z,11.01
2023-04-15T06:10:14.548Z,10.99
2023-04-15T06:12:43.534Z,11.01
2023-04-15T06:15:13.317Z,11.01
2023-04-15T06:17:48.453Z,10.99
2023-04-15T06:20:19.778Z,10.98
2023-04-15T06:22:49.994Z,11.42
2023-04-15T06:25:25.411Z,11.28
2023-04-15T06:27:57.017Z,11.65
2023-04-15T06:30:36.529Z,11.97
2023-04-15T06:33:06.423Z,12.10
2023-04-15T06:38:18.956Z,11.95
2023-04-15T06:40:57.073Z,11.93
2023-04-15T06:43:31.491Z,12.42
2023-04-15T06:46:15.639Z,12.29
2023-04-15T06:49:25.558Z,12.39
2023-04-15T06:52:13.498Z,12.32
2023-04-15T06:55:28.517Z,11.88
2023-04-15T06:58:13.532Z,12.11
2023-04-15T07:01:02.508Z,12.17
2023-04-15T07:06:27.751Z,12.82
2023-04-15T07:09:12.477Z,12.72
2023-04-15T07:11:57.066Z,12.57
2023-04-15T07:17:09.982Z,12.75
2023-04-15T07:19:59.221Z,12.66
2023-04-15T07:23:03.500Z,12.42
2023-04-15T07:25:41.632Z,12.79
2023-04-15T07:28:26.556Z,12.84
2023-04-15T07:31:12.692Z,12.46
2023-04-15T07:36:41.033Z,12.32
2023-04-15T07:39:40.022Z,11.98
2023-04-15T07:42:24.013Z,11.95
2023-04-15T07:45:27.908Z,12.18
2023-04-15T07:48:12.755Z,12.15
2023-04-15T07:50:57.858Z,12.55
2023-04-15T07:53:44.749Z,12.73
2023-04-15T07:56:18.753Z,11.86
2023-04-15T07:59:08.775Z,12.26
2023-04-15T08:02:03.591Z,11.99
2023-04-15T08:04:58.792Z,12.12
2023-04-15T08:07:59.562Z,12.57
2023-04-15T08:10:31.485Z,12.24
2023-04-15T08:13:27.210Z,12.10
2023-04-15T08:16:14.733Z,12.71
2023-04-15T08:18:47.747Z,12.62
2023-04-15T08:21:24.567Z,12.70
2023-04-15T08:23:55.033Z,12.94
2023-04-15T08:26:28.141Z,12.86
2023-04-15T08:29:05.988Z,13.13
2023-04-15T08:31:36.013Z,13.42
2023-04-15T08:36:51.937Z,13.36
2023-04-15T08:39:21.480Z,13.87
2023-04-15T08:42:07.618Z,13.64
2023-04-15T08:44:38.732Z,13.49
2023-04-15T08:47:10.725Z,13.20
2023-04-15T08:49:43.444Z,13.11
2023-04-15T08:52:20.767Z,13.14
2023-04-15T08:54:53.659Z,13.13
2023-04-15T08:57:28.786Z,13.49
2023-04-15T09:00:05.674Z,13.83
2023-04-15T09:03:11.244Z,13.81
2023-04-15T09:05:56.741Z,13.68
2023-04-15T09:08:57.973Z,13.71
2023-04-15T09:11:31.078Z,13.76
2023-04-15T09:14:22.034Z,14.06
2023-04-15T09:17:07.792Z,14.08
2023-04-15T09:20:07.785Z,14.06
2023-04-15T09:22:54.523Z,13.68
2023-04-15T09:25:35.152Z,13.76
2023-04-15T09:28:05.212Z,13.34
2023-04-15T09:30:49.922Z,13.53
2023-04-15T09:33:23.581Z,13.98
2023-04-15T09:36:27.570Z,13.99
2023-04-15T09:39:03.531Z,13.44
2023-04-15T09:41:34.897Z,13.92
2023-04-15T09:44:27.947Z,13.58
2023-04-15T09:47:18.956Z,13.46
2023-04-15T09:50:01.244Z,12.84
2023-04-15T09:52:32.248Z,12.80
2023-04-15T09:55:03.610Z,13.08
2023-04-15T09:57:39.516Z,13.03
2023-04-15T10:00:20.171Z,13.21
2023-04-15T10:02:57.790Z,13.23
2023-04-15T10:05:36.575Z,12.89
2023-04-15T10:08:09.462Z,13.34
2023-04-15T10:10:45.912Z,13.39
2023-04-15T10:13:18.086Z,13.48
2023-04-15T10:15:52.107Z,13.34
2023-04-15T10:18:24.188Z,12.84
2023-04-15T10:20:54.930Z,13.06
2023-04-15T10:23:26.009Z,12.71
2023-04-15T10:25:59.870Z,12.44
2023-04-15T10:28:38.842Z,12.56
2023-04-15T10:31:16.914Z,12.73
2023-04-15T10:33:48.868Z,12.69
2023-04-15T10:36:20.657Z,12.19
2023-04-15T10:38:55.055Z,12.51
2023-04-15T10:41:34.016Z,12.40
2023-04-15T10:44:05.023Z,12.35
2023-04-15T10:46:44.153Z,13.03
2023-04-15T10:49:14.612Z,13.15
2023-04-15T10:51:47.603Z,12.74
2023-04-15T10:54:26.801Z,12.38
2023-04-15T10:57:01.951Z,13.03
2023-04-15T10:59:46.105Z,12.63
2023-04-15T11:02:15.980Z,12.58
2023-04-15T11:05:04.524Z,12.66
2023-04-15T11:07:33.859Z,12.66
2023-04-15T11:10:06.460Z,12.26
2023-04-15T11:12:37.538Z,12.96
2023-04-15T11:15:26.555Z,13.04
2023-04-15T11:17:59.563Z,12.09
2023-04-15T11:20:34.292Z,12.43
2023-04-15T11:25:41.994Z,12.54
2023-04-15T11:28:12.851Z,12.32
2023-04-15T11:30:45.467Z,12.77
2023-04-15T11:33:16.933Z,12.73
2023-04-15T11:35:48.889Z,12.77
2023-04-15T11:38:21.497Z,12.36
2023-04-15T11:41:02.468Z,12.73
2023-04-15T11:43:35.635Z,12.39
2023-04-15T11:46:12.836Z,12.76
2023-04-15T11:48:44.955Z,12.83
2023-04-15T11:51:24.739Z,13.11
2023-04-15T11:53:59.811Z,13.40
2023-04-15T11:56:34.313Z,13.60
2023-04-15T11:59:06.315Z,13.40
2023-04-15T12:01:42.695Z,13.37
2023-04-15T12:04:13.764Z,13.68
2023-04-15T12:06:47.657Z,13.44
2023-04-15T12:09:21.874Z,13.14
2023-04-15T12:12:05.505Z,13.02
2023-04-15T12:14:38.548Z,13.25
2023-04-15T12:17:08.487Z,13.14
2023-04-15T12:19:39.560Z,13.35
2023-04-15T12:22:17.580Z,12.93
2023-04-15T12:27:39.353Z,13.04
2023-04-15T12:30:17.623Z,13.25
2023-04-15T12:32:49.687Z,13.24
2023-04-15T12:35:20.327Z,13.36
2023-04-15T12:40:24.663Z,13.08
2023-04-15T12:42:59.620Z,13.27
2023-04-15T12:45:30.040Z,13.53
2023-04-15T12:48:09.381Z,13.38
2023-04-15T12:50:38.700Z,13.41
2023-04-15T12:53:18.350Z,13.74
2023-04-15T12:55:49.814Z,13.54
2023-04-15T13:01:00.117Z,13.76
2023-04-15T13:03:29.564Z,14.04
2023-04-15T13:05:59.346Z,13.34
2023-04-15T13:08:36.936Z,13.61
2023-04-15T13:11:10.654Z,14.08
2023-04-15T13:16:17.375Z,13.75
2023-04-15T13:18:46.585Z,13.94
2023-04-15T13:21:15.544Z,13.68
2023-04-15T13:23:43.314Z,13.41
2023-04-15T13:26:18.918Z,13.44
2023-04-15T13:28:53.702Z,13.71
2023-04-15T13:31:22.730Z,13.74
2023-04-15T13:33:51.614Z,13.47
2023-04-15T13:36:25.157Z,14.07
2023-04-15T13:38:53.380Z,13.93
2023-04-15T13:41:35.573Z,14.45
2023-04-15T13:44:08.414Z,13.81
2023-04-15T13:46:42.849Z,14.23
2023-04-15T13:49:12.456Z,14.08
2023-04-15T13:51:46.726Z,14.31
2023-04-15T13:54:18.393Z,14.12
2023-04-15T13:56:46.790Z,14.27
2023-04-15T13:59:26.536Z,14.33
2023-04-15T14:01:58.635Z,14.49
2023-04-15T14:04:27.992Z,14.15
2023-04-15T14:12:13.526Z,14.65
2023-04-15T14:14:49.706Z,14.67
2023-04-15T14:17:25.438Z,14.36
2023-04-15T14:19:57.550Z,14.11
2023-04-15T14:22:26.374Z,14.64
2023-04-15T14:27:41.372Z,14.57
2023-04-15T14:30:28.279Z,14.57
2023-04-15T14:35:33.688Z,14.81
2023-04-15T14:38:11.477Z,14.44
2023-04-15T14:40:41.362Z,14.51
2023-04-15T14:43:11.518Z,14.51
2023-04-15T14:45:44.600Z,14.50
2023-04-15T14:48:14.404Z,14.60
2023-04-15T14:50:42.354Z,14.29
2023-04-15T14:53:11.319Z,14.51
2023-04-15T14:55:41.368Z,14.38
2023-04-15T14:58:17.627Z,14.29
2023-04-15T15:00:51.396Z,14.43
2023-04-15T15:03:33.388Z,14.50
2023-04-15T15:06:09.138Z,14.76
2023-04-15T15:11:21.873Z,14.65
2023-04-15T15:13:50.389Z,14.13
2023-04-15T15:16:28.018Z,14.33
2023-04-15T15:18:57.910Z,14.19
2023-04-15T15:21:37.703Z,14.14
2023-04-15T15:24:06.634Z,14.42
2023-04-15T15:26:37.517Z,14.43
2023-04-15T15:29:12.498Z,14.45
2023-04-15T15:31:57.320Z,14.42
2023-04-15T15:34:36.473Z,14.62
2023-04-15T15:37:11.471Z,14.05
2023-04-15T15:39:45.613Z,13.89
2023-04-15T15:42:13.593Z,13.93
2023-04-15T15:44:41.457Z,13.27
2023-04-15T15:47:12.309Z,13.27
2023-04-15T15:49:47.365Z,13.19
2023-04-15T15:52:17.555Z,13.60
2023-04-15T15:55:01.405Z,13.24
2023-04-15T15:57:35.592Z,13.34
2023-04-15T16:00:12.810Z,13.27
2023-04-15T16:03:06.157Z,13.65
2023-04-15T16:05:42.236Z,13.79
2023-04-15T16:08:23.135Z,13.87
2023-04-15T16:11:05.273Z,14.09
2023-04-15T16:13:36.139Z,14.22
2023-04-15T16:16:07.901Z,14.18
2023-04-15T16:18:39.576Z,14.32
2023-04-15T16:21:14.484Z,14.30
2023-04-15T16:23:56.570Z,14.09
2023-04-15T16:26:31.388Z,14.14
2023-04-15T16:29:02.699Z,14.29
2023-04-15T16:31:39.496Z,14.38
2023-04-15T16:39:29.444Z,13.74
2023-04-15T16:44:34.901Z,13.54
2023-04-15T16:47:10.045Z,13.76
2023-04-15T16:49:41.642Z,13.48
2023-04-15T16:52:20.344Z,13.11
2023-04-15T16:54:57.490Z,13.04
2023-04-15T16:58:01.440Z,13.34
2023-04-15T17:00:33.113Z,13.51
2023-04-15T17:05:55.370Z,13.67
2023-04-15T17:08:23.489Z,13.58
2023-04-15T17:10:55.307Z,13.48
2023-04-15T17:13:25.359Z,13.55
2023-04-15T17:15:56.478Z,13.50
2023-04-15T17:18:40.456Z,13.66
2023-04-15T17:21:28.448Z,13.50
2023-04-15T17:26:50.562Z,13.78
2023-04-15T17:29:24.564Z,13.97
2023-04-15T17:35:06.758Z,13.88
2023-04-15T17:37:55.346Z,13.64
2023-04-15T17:40:45.396Z,13.76
2023-04-15T17:43:35.323Z,13.50
2023-04-15T17:46:25.738Z,13.68
2023-04-15T17:49:07.534Z,13.53
2023-04-15T17:52:02.646Z,13.57
2023-04-15T17:57:36.934Z,13.46
2023-04-15T18:00:24.984Z,13.38
2023-04-15T18:03:03.541Z,13.28
2023-04-15T18:05:57.440Z,13.17
2023-04-15T18:08:55.510Z,12.94
2023-04-15T18:11:49.716Z,12.91
2023-04-15T18:14:50.292Z,12.87
2023-04-15T18:17:39.916Z,12.99
2023-04-15T18:20:23.530Z,13.07
2023-04-15T18:23:01.541Z,12.71
2023-04-15T18:25:38.331Z,12.80
2023-04-15T18:30:46.916Z,12.54
2023-04-15T18:33:23.585Z,12.46
2023-04-15T18:36:03.013Z,12.35
2023-04-15T18:38:41.427Z,12.29
2023-04-15T18:41:18.835Z,12.35
2023-04-15T18:43:56.450Z,12.46
2023-04-15T18:46:25.842Z,12.68
2023-04-15T18:49:05.821Z,12.53
2023-04-15T18:51:40.282Z,12.48
2023-04-15T18:54:17.457Z,12.46
2023-04-15T18:56:45.503Z,12.28
2023-04-15T18:59:30.145Z,12.31
2023-04-15T19:02:04.149Z,11.96
2023-04-15T19:04:44.016Z,12.05
2023-04-15T19:07:24.241Z,11.98
2023-04-15T19:12:33.351Z,11.81
2023-04-15T19:15:09.341Z,11.89
2023-04-15T19:23:08.668Z,11.93
2023-04-15T19:25:39.323Z,11.79
2023-04-15T19:28:12.453Z,11.67
2023-04-15T19:30:42.400Z,11.68
2023-04-15T19:33:10.087Z,11.65
2023-04-15T19:35:45.929Z,11.42
2023-04-15T19:38:16.242Z,11.43
2023-04-15T19:40:49.854Z,11.38
2023-04-15T19:43:18.320Z,11.40
2023-04-15T19:45:49.514Z,11.48
2023-04-15T19:48:23.380Z,11.43
2023-04-15T19:50:54.679Z,11.29
2023-04-15T19:53:24.538Z,11.35
2023-04-15T19:58:36.377Z,11.67
2023-04-15T20:01:09.550Z,11.76
2023-04-15T20:03:45.488Z,11.75
2023-04-15T20:06:22.581Z,11.72
2023-04-15T20:08:58.344Z,11.64
2023-04-15T20:12:45.671Z,11.47
2023-04-15T20:14:20.585Z,11.48
2023-04-15T20:16:59.401Z,11.46
2023-04-15T20:19:28.732Z,11.52
2023-04-15T20:21:56.405Z,11.32
2023-04-15T20:24:25.288Z,11.46
2023-04-15T20:26:55.313Z,11.45
2023-04-15T20:29:37.448Z,11.39
2023-04-15T20:32:07.007Z,11.29
2023-04-15T20:34:35.502Z,11.38
2023-04-15T20:37:12.557Z,11.39
2023-04-15T20:39:44.284Z,11.49
2023-04-15T20:42:12.723Z,11.48
2023-04-15T20:44:51.422Z,11.33
2023-04-15T20:47:20.315Z,11.21
2023-04-15T20:52:26.520Z,11.34
2023-04-15T20:55:03.379Z,11.49
2023-04-15T20:57:33.294Z,11.48
2023-04-15T21:00:01.587Z,11.53
2023-04-15T21:02:37.592Z,11.57
2023-04-15T21:05:08.654Z,11.51
2023-04-15T21:07:36.269Z,11.46
2023-04-15T21:10:05.595Z,11.30
2023-04-15T21:12:41.024Z,11.36
2023-04-15T21:15:11.698Z,11.25
2023-04-15T21:17:44.600Z,11.43
2023-04-15T21:20:22.434Z,11.44
2023-04-15T21:22:50.743Z,11.40
2023-04-15T21:25:19.481Z,11.37
2023-04-15T21:27:47.135Z,11.61
2023-04-15T21:30:16.951Z,11.37
2023-04-15T21:32:45.920Z,11.35
2023-04-15T21:35:18.698Z,11.18
2023-04-15T21:40:21.171Z,11.11
2023-04-15T21:42:49.432Z,11.13
2023-04-15T21:45:17.466Z,11.18
2023-04-15T21:47:59.737Z,11.31
2023-04-15T21:50:43.756Z,11.29
2023-04-15T21:53:18.708Z,11.29
2023-04-15T21:55:48.697Z,11.34
2023-04-15T21:58:16.790Z,11.32
2023-04-15T22:00:45.450Z,11.33
2023-04-15T22:03:14.744Z,11.13
2023-04-15T22:05:44.829Z,11.34
2023-04-15T22:08:12.561Z,11.22
2023-04-15T22:10:41.106Z,11.37
2023-04-15T22:13:11.171Z,11.51
2023-04-15T22:15:40.577Z,11.39
2023-04-15T22:18:08.134Z,11.32
2023-04-15T22:20:36.521Z,11.44
2023-04-15T22:23:07.954Z,11.39
2023-04-15T22:25:37.161Z,11.27
2023-04-15T22:28:07.945Z,11.27
2023-04-15T22:30:39.008Z,11.25
2023-04-15T22:33:08.277Z,11.18
2023-04-15T22:35:37.435Z,11.25
2023-04-15T22:38:05.620Z,11.35
2023-04-15T22:40:37.216Z,11.41
2023-04-15T22:43:05.647Z,11.61
2023-04-15T22:45:36.369Z,11.42
2023-04-15T22:48:05.559Z,11.17
2023-04-15T22:50:33.808Z,11.23
2023-04-15T22:53:02.128Z,11.05
2023-04-15T22:55:29.501Z,11.16
2023-04-15T22:57:58.533Z,11.26
2023-04-15T23:00:26.901Z,11.31
2023-04-15T23:02:54.671Z,11.12
2023-04-15T23:05:23.983Z,11.00
2023-04-15T23:07:51.387Z,11.05
2023-04-15T23:10:18.849Z,11.09
2023-04-15T23:12:48.549Z,11.17
2023-04-15T23:15:16.048Z,11.14
2023-04-15T23:17:44.109Z,11.05
2023-04-15T23:20:12.806Z,11.15
2023-04-15T23:22:42.165Z,11.27
2023-04-15T23:25:10.210Z,11.23
2023-04-15T23:27:38.836Z,11.13
2023-04-15T23:30:07.915Z,11.27
2023-04-15T23:32:38.476Z,11.29
2023-04-15T23:35:07.315Z,11.29
2023-04-15T23:37:36.181Z,11.19
2023-04-15T23:40:03.889Z,11.11
2023-04-15T23:42:32.101Z,11.16
2023-04-15T23:44:59.561Z,11.14
2023-04-15T23:47:28.959Z,11.01
2023-04-15T23:49:57.160Z,11.07
2023-04-15T23:52:24.411Z,10.99
2023-04-15T23:54:52.207Z,11.00
2023-04-15T23:57:22.862Z,10.95
2023-04-15T23:59:50.675Z,10.93
